sensor_id;sensor_type;location;lat;lon;timestamp;P1;durP1;ratioP1;P2;durP2;ratioP2
4074;SDS011;2052;53.522;9.806;2023-08-12T00:01:57;13.40;;;8.33;;
4074;SDS011;2052;53.522;9.806;2023-08-12T00:04:23;14.10;;;7.97;;
4074;SDS011;2052;53.522;9.806;2023-08-12T00:06:51;11.30;;;8.53;;
4074;SDS011;2052;53.522;9.806;2023-08-12T00:09:18;11.40;;;8.03;;
4074;SDS011;2052;53.522;9.806;2023-08-12T00:11:44;7.90;;;7.10;;
4074;SDS011;2052;53.522;9.806;2023-08-12T00:14:11;8.50;;;7.57;;
4074;SDS011;2052;53.522;9.806;2023-08-12T00:16:38;9.27;;;8.27;;
4074;SDS011;2052;53.522;9.806;2023-08-12T00:19:06;9.03;;;7.70;;
4074;SDS011;2052;53.522;9.806;2023-08-12T00:21:33;13.17;;;7.93;;
4074;SDS011;2052;53.522;9.806;2023-08-12T00:24:01;11.10;;;8.40;;
4074;SDS011;2052;53.522;9.806;2023-08-12T00:26:29;11.90;;;7.77;;
4074;SDS011;2052;53.522;9.806;2023-08-12T00:28:55;10.10;;;8.67;;
4074;SDS011;2052;53.522;9.806;2023-08-12T00:31:22;9.87;;;7.50;;
4074;SDS011;2052;53.522;9.806;2023-08-12T00:33:48;13.30;;;7.80;;
4074;SDS011;2052;53.522;9.806;2023-08-12T00:36:15;15.00;;;8.27;;
4074;SDS011;2052;53.522;9.806;2023-08-12T00:38:41;10.47;;;7.93;;
4074;SDS011;2052;53.522;9.806;2023-08-12T00:41:09;15.33;;;8.13;;
4074;SDS011;2052;53.522;9.806;2023-08-12T00:43:36;11.23;;;7.40;;
4074;SDS011;2052;53.522;9.806;2023-08-12T00:46:03;14.33;;;8.03;;
4074;SDS011;2052;53.522;9.806;2023-08-12T00:48:29;14.13;;;7.63;;
4074;SDS011;2052;53.522;9.806;2023-08-12T00:50:56;9.47;;;6.80;;
4074;SDS011;2052;53.522;9.806;2023-08-12T00:53:22;9.33;;;7.37;;
4074;SDS011;2052;53.522;9.806;2023-08-12T00:55:51;9.20;;;6.93;;
4074;SDS011;2052;53.522;9.806;2023-08-12T00:58:19;9.73;;;7.17;;
4074;SDS011;2052;53.522;9.806;2023-08-12T01:00:45;11.40;;;7.70;;
4074;SDS011;2052;53.522;9.806;2023-08-12T01:03:17;11.03;;;8.00;;
4074;SDS011;2052;53.522;9.806;2023-08-12T01:05:44;13.83;;;7.90;;
4074;SDS011;2052;53.522;9.806;2023-08-12T01:08:11;9.50;;;6.77;;
4074;SDS011;2052;53.522;9.806;2023-08-12T01:10:38;14.67;;;7.10;;
4074;SDS011;2052;53.522;9.806;2023-08-12T01:13:13;14.93;;;7.20;;
4074;SDS011;2052;53.522;9.806;2023-08-12T01:15:48;12.50;;;7.43;;
4074;SDS011;2052;53.522;9.806;2023-08-12T01:18:16;11.87;;;7.33;;
4074;SDS011;2052;53.522;9.806;2023-08-12T01:20:44;10.50;;;7.67;;
4074;SDS011;2052;53.522;9.806;2023-08-12T01:23:12;14.50;;;7.80;;
4074;SDS011;2052;53.522;9.806;2023-08-12T01:25:39;10.97;;;7.63;;
4074;SDS011;2052;53.522;9.806;2023-08-12T01:28:06;14.33;;;7.80;;
4074;SDS011;2052;53.522;9.806;2023-08-12T01:30:33;10.43;;;8.20;;
4074;SDS011;2052;53.522;9.806;2023-08-12T01:33:04;18.67;;;8.87;;
4074;SDS011;2052;53.522;9.806;2023-08-12T01:35:36;9.87;;;7.53;;
4074;SDS011;2052;53.522;9.806;2023-08-12T01:38:06;14.03;;;7.13;;
4074;SDS011;2052;53.522;9.806;2023-08-12T01:40:37;10.83;;;7.67;;
4074;SDS011;2052;53.522;9.806;2023-08-12T01:43:05;10.03;;;8.53;;
4074;SDS011;2052;53.522;9.806;2023-08-12T01:45:32;9.50;;;7.70;;
4074;SDS011;2052;53.522;9.806;2023-08-12T01:47:59;13.20;;;8.80;;
4074;SDS011;2052;53.522;9.806;2023-08-12T01:50:25;11.97;;;7.90;;
4074;SDS011;2052;53.522;9.806;2023-08-12T01:52:54;12.50;;;8.37;;
4074;SDS011;2052;53.522;9.806;2023-08-12T01:55:20;9.90;;;8.23;;
4074;SDS011;2052;53.522;9.806;2023-08-12T01:57:48;11.43;;;7.30;;
4074;SDS011;2052;53.522;9.806;2023-08-12T02:00:15;11.13;;;8.23;;
4074;SDS011;2052;53.522;9.806;2023-08-12T02:02:42;11.00;;;7.90;;
4074;SDS011;2052;53.522;9.806;2023-08-12T02:05:11;13.10;;;10.13;;
4074;SDS011;2052;53.522;9.806;2023-08-12T02:07:37;11.13;;;8.60;;
4074;SDS011;2052;53.522;9.806;2023-08-12T02:10:04;12.23;;;8.30;;
4074;SDS011;2052;53.522;9.806;2023-08-12T02:12:31;10.20;;;8.57;;
4074;SDS011;2052;53.522;9.806;2023-08-12T02:14:59;18.17;;;8.00;;
4074;SDS011;2052;53.522;9.806;2023-08-12T02:17:27;12.13;;;8.30;;
4074;SDS011;2052;53.522;9.806;2023-08-12T02:19:54;15.90;;;7.83;;
4074;SDS011;2052;53.522;9.806;2023-08-12T02:22:21;9.70;;;8.50;;
4074;SDS011;2052;53.522;9.806;2023-08-12T02:24:48;11.63;;;8.53;;
4074;SDS011;2052;53.522;9.806;2023-08-12T02:27:15;12.37;;;7.60;;
4074;SDS011;2052;53.522;9.806;2023-08-12T02:29:42;12.20;;;7.70;;
4074;SDS011;2052;53.522;9.806;2023-08-12T02:32:10;10.20;;;8.10;;
4074;SDS011;2052;53.522;9.806;2023-08-12T02:34:37;9.90;;;7.77;;
4074;SDS011;2052;53.522;9.806;2023-08-12T02:37:03;10.40;;;7.83;;
4074;SDS011;2052;53.522;9.806;2023-08-12T02:39:31;10.10;;;7.77;;
4074;SDS011;2052;53.522;9.806;2023-08-12T02:41:58;8.80;;;7.23;;
4074;SDS011;2052;53.522;9.806;2023-08-12T02:44:24;9.57;;;7.70;;
4074;SDS011;2052;53.522;9.806;2023-08-12T02:46:51;8.13;;;7.10;;
4074;SDS011;2052;53.522;9.806;2023-08-12T02:49:19;19.37;;;8.33;;
4074;SDS011;2052;53.522;9.806;2023-08-12T02:51:46;9.40;;;7.70;;
4074;SDS011;2052;53.522;9.806;2023-08-12T02:54:13;9.30;;;7.90;;
4074;SDS011;2052;53.522;9.806;2023-08-12T02:56:40;13.40;;;7.77;;
4074;SDS011;2052;53.522;9.806;2023-08-12T02:59:06;10.23;;;8.00;;
4074;SDS011;2052;53.522;9.806;2023-08-12T03:01:33;10.00;;;8.20;;
4074;SDS011;2052;53.522;9.806;2023-08-12T03:03:59;9.67;;;7.80;;
4074;SDS011;2052;53.522;9.806;2023-08-12T03:06:28;17.83;;;8.63;;
4074;SDS011;2052;53.522;9.806;2023-08-12T03:08:54;10.50;;;8.30;;
4074;SDS011;2052;53.522;9.806;2023-08-12T03:11:21;10.53;;;7.97;;
4074;SDS011;2052;53.522;9.806;2023-08-12T03:13:47;10.90;;;8.30;;
4074;SDS011;2052;53.522;9.806;2023-08-12T03:16:14;11.67;;;8.20;;
4074;SDS011;2052;53.522;9.806;2023-08-12T03:18:40;10.50;;;7.83;;
4074;SDS011;2052;53.522;9.806;2023-08-12T03:21:07;10.77;;;8.47;;
4074;SDS011;2052;53.522;9.806;2023-08-12T03:23:36;13.10;;;8.30;;
4074;SDS011;2052;53.522;9.806;2023-08-12T03:26:03;11.07;;;8.50;;
4074;SDS011;2052;53.522;9.806;2023-08-12T03:28:30;12.17;;;8.80;;
4074;SDS011;2052;53.522;9.806;2023-08-12T03:30:57;13.73;;;8.70;;
4074;SDS011;2052;53.522;9.806;2023-08-12T03:33:23;14.23;;;9.07;;
4074;SDS011;2052;53.522;9.806;2023-08-12T03:35:50;9.77;;;8.87;;
4074;SDS011;2052;53.522;9.806;2023-08-12T03:38:17;17.77;;;9.63;;
4074;SDS011;2052;53.522;9.806;2023-08-12T03:40:45;11.37;;;8.50;;
4074;SDS011;2052;53.522;9.806;2023-08-12T03:43:11;11.93;;;9.30;;
4074;SDS011;2052;53.522;9.806;2023-08-12T03:45:41;13.53;;;9.17;;
4074;SDS011;2052;53.522;9.806;2023-08-12T03:48:09;14.87;;;9.37;;
4074;SDS011;2052;53.522;9.806;2023-08-12T03:50:36;16.43;;;9.27;;
4074;SDS011;2052;53.522;9.806;2023-08-12T03:53:03;11.37;;;9.30;;
4074;SDS011;2052;53.522;9.806;2023-08-12T03:55:30;13.83;;;9.20;;
4074;SDS011;2052;53.522;9.806;2023-08-12T03:57:58;13.53;;;8.97;;
4074;SDS011;2052;53.522;9.806;2023-08-12T04:00:24;10.83;;;9.63;;
4074;SDS011;2052;53.522;9.806;2023-08-12T04:02:53;12.23;;;9.10;;
4074;SDS011;2052;53.522;9.806;2023-08-12T04:05:20;15.07;;;9.00;;
4074;SDS011;2052;53.522;9.806;2023-08-12T04:07:47;13.53;;;9.13;;
4074;SDS011;2052;53.522;9.806;2023-08-12T04:10:13;11.43;;;8.70;;
4074;SDS011;2052;53.522;9.806;2023-08-12T04:12:40;10.77;;;8.50;;
4074;SDS011;2052;53.522;9.806;2023-08-12T04:15:09;13.30;;;9.00;;
4074;SDS011;2052;53.522;9.806;2023-08-12T04:17:36;20.03;;;9.37;;
4074;SDS011;2052;53.522;9.806;2023-08-12T04:20:05;10.27;;;8.70;;
4074;SDS011;2052;53.522;9.806;2023-08-12T04:22:33;12.83;;;9.00;;
4074;SDS011;2052;53.522;9.806;2023-08-12T04:25:00;12.00;;;8.50;;
4074;SDS011;2052;53.522;9.806;2023-08-12T04:27:27;11.60;;;8.87;;
4074;SDS011;2052;53.522;9.806;2023-08-12T04:29:53;15.73;;;9.60;;
4074;SDS011;2052;53.522;9.806;2023-08-12T04:32:22;9.03;;;8.13;;
4074;SDS011;2052;53.522;9.806;2023-08-12T04:34:48;13.50;;;8.73;;
4074;SDS011;2052;53.522;9.806;2023-08-12T04:37:15;9.63;;;8.20;;
4074;SDS011;2052;53.522;9.806;2023-08-12T04:39:41;13.00;;;9.53;;
4074;SDS011;2052;53.522;9.806;2023-08-12T04:42:08;12.23;;;8.53;;
4074;SDS011;2052;53.522;9.806;2023-08-12T04:44:35;13.20;;;8.27;;
4074;SDS011;2052;53.522;9.806;2023-08-12T04:47:02;10.67;;;8.30;;
4074;SDS011;2052;53.522;9.806;2023-08-12T04:49:30;12.80;;;8.87;;
4074;SDS011;2052;53.522;9.806;2023-08-12T04:51:58;10.30;;;8.63;;
4074;SDS011;2052;53.522;9.806;2023-08-12T04:54:25;11.93;;;9.30;;
4074;SDS011;2052;53.522;9.806;2023-08-12T04:56:51;9.80;;;8.80;;
4074;SDS011;2052;53.522;9.806;2023-08-12T04:59:18;9.50;;;7.97;;
4074;SDS011;2052;53.522;9.806;2023-08-12T05:01:44;10.70;;;7.80;;
4074;SDS011;2052;53.522;9.806;2023-08-12T05:04:11;9.13;;;8.23;;
4074;SDS011;2052;53.522;9.806;2023-08-12T05:06:39;11.27;;;8.20;;
4074;SDS011;2052;53.522;9.806;2023-08-12T05:09:06;12.97;;;9.00;;
4074;SDS011;2052;53.522;9.806;2023-08-12T05:11:33;9.00;;;7.90;;
4074;SDS011;2052;53.522;9.806;2023-08-12T05:13:59;12.20;;;9.10;;
4074;SDS011;2052;53.522;9.806;2023-08-12T05:16:26;12.00;;;8.87;;
4074;SDS011;2052;53.522;9.806;2023-08-12T05:18:54;10.70;;;8.73;;
4074;SDS011;2052;53.522;9.806;2023-08-12T05:21:20;12.90;;;9.40;;
4074;SDS011;2052;53.522;9.806;2023-08-12T05:23:49;12.13;;;8.90;;
4074;SDS011;2052;53.522;9.806;2023-08-12T05:26:16;13.37;;;9.20;;
4074;SDS011;2052;53.522;9.806;2023-08-12T05:28:42;13.30;;;9.80;;
4074;SDS011;2052;53.522;9.806;2023-08-12T05:31:09;12.00;;;9.60;;
4074;SDS011;2052;53.522;9.806;2023-08-12T05:33:35;11.57;;;9.57;;
4074;SDS011;2052;53.522;9.806;2023-08-12T05:36:02;10.97;;;9.53;;
4074;SDS011;2052;53.522;9.806;2023-08-12T05:38:29;10.63;;;9.53;;
4074;SDS011;2052;53.522;9.806;2023-08-12T05:40:57;13.80;;;9.90;;
4074;SDS011;2052;53.522;9.806;2023-08-12T05:43:23;11.57;;;9.77;;
4074;SDS011;2052;53.522;9.806;2023-08-12T05:45:50;14.40;;;10.10;;
4074;SDS011;2052;53.522;9.806;2023-08-12T05:48:17;11.17;;;9.83;;
4074;SDS011;2052;53.522;9.806;2023-08-12T05:50:43;12.23;;;10.00;;
4074;SDS011;2052;53.522;9.806;2023-08-12T05:53:11;17.57;;;10.60;;
4074;SDS011;2052;53.522;9.806;2023-08-12T05:55:38;16.23;;;10.87;;
4074;SDS011;2052;53.522;9.806;2023-08-12T05:58:06;17.80;;;11.93;;
4074;SDS011;2052;53.522;9.806;2023-08-12T06:00:34;19.50;;;12.10;;
4074;SDS011;2052;53.522;9.806;2023-08-12T06:03:01;13.50;;;10.97;;
4074;SDS011;2052;53.522;9.806;2023-08-12T06:05:27;16.80;;;11.50;;
4074;SDS011;2052;53.522;9.806;2023-08-12T06:07:54;14.93;;;11.00;;
4074;SDS011;2052;53.522;9.806;2023-08-12T06:10:20;18.80;;;13.67;;
4074;SDS011;2052;53.522;9.806;2023-08-12T06:12:47;23.40;;;14.90;;
4074;SDS011;2052;53.522;9.806;2023-08-12T06:15:15;22.80;;;14.90;;
4074;SDS011;2052;53.522;9.806;2023-08-12T06:17:42;20.40;;;14.90;;
4074;SDS011;2052;53.522;9.806;2023-08-12T06:20:09;28.37;;;15.40;;
4074;SDS011;2052;53.522;9.806;2023-08-12T06:22:36;18.63;;;13.90;;
4074;SDS011;2052;53.522;9.806;2023-08-12T06:25:03;20.43;;;15.00;;
4074;SDS011;2052;53.522;9.806;2023-08-12T06:27:30;19.93;;;14.93;;
4074;SDS011;2052;53.522;9.806;2023-08-12T06:29:57;23.07;;;16.10;;
4074;SDS011;2052;53.522;9.806;2023-08-12T06:32:25;20.20;;;15.47;;
4074;SDS011;2052;53.522;9.806;2023-08-12T06:34:51;19.83;;;15.13;;
4074;SDS011;2052;53.522;9.806;2023-08-12T06:37:18;18.93;;;15.50;;
4074;SDS011;2052;53.522;9.806;2023-08-12T06:39:45;16.67;;;14.27;;
4074;SDS011;2052;53.522;9.806;2023-08-12T06:42:12;20.83;;;15.20;;
4074;SDS011;2052;53.522;9.806;2023-08-12T06:44:38;21.00;;;16.17;;
4074;SDS011;2052;53.522;9.806;2023-08-12T06:47:05;20.60;;;15.03;;
4074;SDS011;2052;53.522;9.806;2023-08-12T06:49:33;20.70;;;16.10;;
4074;SDS011;2052;53.522;9.806;2023-08-12T06:52:00;18.80;;;15.30;;
4074;SDS011;2052;53.522;9.806;2023-08-12T06:54:27;23.13;;;16.20;;
4074;SDS011;2052;53.522;9.806;2023-08-12T06:56:55;20.40;;;14.67;;
4074;SDS011;2052;53.522;9.806;2023-08-12T06:59:22;23.10;;;16.80;;
4074;SDS011;2052;53.522;9.806;2023-08-12T07:01:49;21.87;;;16.33;;
4074;SDS011;2052;53.522;9.806;2023-08-12T07:04:15;23.97;;;17.00;;
4074;SDS011;2052;53.522;9.806;2023-08-12T07:06:44;19.97;;;16.20;;
4074;SDS011;2052;53.522;9.806;2023-08-12T07:09:12;22.50;;;17.00;;
4074;SDS011;2052;53.522;9.806;2023-08-12T07:11:47;19.43;;;14.63;;
4074;SDS011;2052;53.522;9.806;2023-08-12T07:14:37;21.90;;;15.70;;
4074;SDS011;2052;53.522;9.806;2023-08-12T07:17:04;17.83;;;13.60;;
4074;SDS011;2052;53.522;9.806;2023-08-12T07:19:31;16.60;;;13.90;;
4074;SDS011;2052;53.522;9.806;2023-08-12T07:21:59;18.03;;;14.10;;
4074;SDS011;2052;53.522;9.806;2023-08-12T07:24:25;16.97;;;13.10;;
4074;SDS011;2052;53.522;9.806;2023-08-12T07:26:52;16.10;;;13.27;;
4074;SDS011;2052;53.522;9.806;2023-08-12T07:29:18;17.63;;;12.60;;
4074;SDS011;2052;53.522;9.806;2023-08-12T07:31:45;17.73;;;11.90;;
4074;SDS011;2052;53.522;9.806;2023-08-12T07:34:11;16.47;;;11.30;;
4074;SDS011;2052;53.522;9.806;2023-08-12T07:36:38;16.40;;;11.43;;
4074;SDS011;2052;53.522;9.806;2023-08-12T07:39:06;15.87;;;10.00;;
4074;SDS011;2052;53.522;9.806;2023-08-12T07:41:33;16.17;;;11.43;;
4074;SDS011;2052;53.522;9.806;2023-08-12T07:44:00;15.27;;;10.03;;
4074;SDS011;2052;53.522;9.806;2023-08-12T07:46:27;13.47;;;10.40;;
4074;SDS011;2052;53.522;9.806;2023-08-12T07:48:54;12.70;;;10.60;;
4074;SDS011;2052;53.522;9.806;2023-08-12T07:51:22;15.70;;;11.53;;
4074;SDS011;2052;53.522;9.806;2023-08-12T07:53:49;12.03;;;10.17;;
4074;SDS011;2052;53.522;9.806;2023-08-12T07:56:17;17.17;;;11.07;;
4074;SDS011;2052;53.522;9.806;2023-08-12T07:58:46;16.00;;;11.60;;
4074;SDS011;2052;53.522;9.806;2023-08-12T08:01:13;13.80;;;11.53;;
4074;SDS011;2052;53.522;9.806;2023-08-12T08:03:39;16.93;;;11.00;;
4074;SDS011;2052;53.522;9.806;2023-08-12T08:06:06;14.77;;;11.20;;
4074;SDS011;2052;53.522;9.806;2023-08-12T08:08:33;13.70;;;10.53;;
4074;SDS011;2052;53.522;9.806;2023-08-12T08:10:59;13.40;;;9.73;;
4074;SDS011;2052;53.522;9.806;2023-08-12T08:13:27;10.63;;;9.10;;
4074;SDS011;2052;53.522;9.806;2023-08-12T08:15:55;11.83;;;9.90;;
4074;SDS011;2052;53.522;9.806;2023-08-12T08:18:21;11.43;;;9.80;;
4074;SDS011;2052;53.522;9.806;2023-08-12T08:20:49;13.33;;;9.87;;
4074;SDS011;2052;53.522;9.806;2023-08-12T08:23:17;10.40;;;8.23;;
4074;SDS011;2052;53.522;9.806;2023-08-12T08:25:43;9.97;;;7.70;;
4074;SDS011;2052;53.522;9.806;2023-08-12T08:28:10;15.40;;;8.20;;
4074;SDS011;2052;53.522;9.806;2023-08-12T08:30:40;12.40;;;7.10;;
4074;SDS011;2052;53.522;9.806;2023-08-12T08:33:07;9.97;;;6.90;;
4074;SDS011;2052;53.522;9.806;2023-08-12T08:35:34;9.23;;;7.20;;
4074;SDS011;2052;53.522;9.806;2023-08-12T08:38:01;7.80;;;7.00;;
4074;SDS011;2052;53.522;9.806;2023-08-12T08:40:27;10.10;;;8.50;;
4074;SDS011;2052;53.522;9.806;2023-08-12T08:42:54;9.80;;;7.17;;
4074;SDS011;2052;53.522;9.806;2023-08-12T08:45:26;9.53;;;7.10;;
4074;SDS011;2052;53.522;9.806;2023-08-12T08:47:54;18.00;;;7.20;;
4074;SDS011;2052;53.522;9.806;2023-08-12T08:50:22;9.70;;;6.60;;
4074;SDS011;2052;53.522;9.806;2023-08-12T08:52:48;9.77;;;7.03;;
4074;SDS011;2052;53.522;9.806;2023-08-12T08:55:16;9.57;;;6.93;;
4074;SDS011;2052;53.522;9.806;2023-08-12T08:57:43;7.77;;;6.43;;
4074;SDS011;2052;53.522;9.806;2023-08-12T09:00:10;10.63;;;7.97;;
4074;SDS011;2052;53.522;9.806;2023-08-12T09:02:39;10.20;;;7.50;;
4074;SDS011;2052;53.522;9.806;2023-08-12T09:05:08;9.40;;;7.07;;
4074;SDS011;2052;53.522;9.806;2023-08-12T09:07:35;12.20;;;6.87;;
4074;SDS011;2052;53.522;9.806;2023-08-12T09:10:02;9.47;;;6.80;;
4074;SDS011;2052;53.522;9.806;2023-08-12T09:12:30;6.80;;;5.53;;
4074;SDS011;2052;53.522;9.806;2023-08-12T09:14:57;8.10;;;6.10;;
4074;SDS011;2052;53.522;9.806;2023-08-12T09:17:24;8.23;;;6.97;;
4074;SDS011;2052;53.522;9.806;2023-08-12T09:19:50;7.90;;;6.97;;
4074;SDS011;2052;53.522;9.806;2023-08-12T09:22:18;10.20;;;6.80;;
4074;SDS011;2052;53.522;9.806;2023-08-12T09:24:45;9.93;;;7.10;;
4074;SDS011;2052;53.522;9.806;2023-08-12T09:27:11;11.27;;;7.03;;
4074;SDS011;2052;53.522;9.806;2023-08-12T09:29:37;12.20;;;7.40;;
4074;SDS011;2052;53.522;9.806;2023-08-12T09:32:09;10.57;;;7.90;;
4074;SDS011;2052;53.522;9.806;2023-08-12T09:34:36;12.93;;;7.77;;
4074;SDS011;2052;53.522;9.806;2023-08-12T09:37:03;9.77;;;7.30;;
4074;SDS011;2052;53.522;9.806;2023-08-12T09:39:31;11.33;;;8.37;;
4074;SDS011;2052;53.522;9.806;2023-08-12T09:41:58;12.33;;;8.30;;
4074;SDS011;2052;53.522;9.806;2023-08-12T09:44:26;12.13;;;9.10;;
4074;SDS011;2052;53.522;9.806;2023-08-12T09:46:56;13.50;;;8.30;;
4074;SDS011;2052;53.522;9.806;2023-08-12T09:49:25;11.57;;;7.63;;
4074;SDS011;2052;53.522;9.806;2023-08-12T09:51:51;9.57;;;7.93;;
4074;SDS011;2052;53.522;9.806;2023-08-12T09:54:19;14.93;;;8.90;;
4074;SDS011;2052;53.522;9.806;2023-08-12T09:56:48;17.53;;;8.53;;
4074;SDS011;2052;53.522;9.806;2023-08-12T09:59:18;14.27;;;8.83;;
4074;SDS011;2052;53.522;9.806;2023-08-12T10:01:45;13.87;;;7.57;;
4074;SDS011;2052;53.522;9.806;2023-08-12T10:04:13;8.80;;;7.60;;
4074;SDS011;2052;53.522;9.806;2023-08-12T10:06:41;9.60;;;7.30;;
4074;SDS011;2052;53.522;9.806;2023-08-12T10:09:07;10.40;;;7.63;;
4074;SDS011;2052;53.522;9.806;2023-08-12T10:11:36;15.00;;;7.73;;
4074;SDS011;2052;53.522;9.806;2023-08-12T10:14:06;10.03;;;7.20;;
4074;SDS011;2052;53.522;9.806;2023-08-12T10:16:33;10.60;;;7.20;;
4074;SDS011;2052;53.522;9.806;2023-08-12T10:19:00;9.80;;;6.90;;
4074;SDS011;2052;53.522;9.806;2023-08-12T10:21:29;11.50;;;7.73;;
4074;SDS011;2052;53.522;9.806;2023-08-12T10:23:56;10.43;;;7.80;;
4074;SDS011;2052;53.522;9.806;2023-08-12T10:26:24;11.97;;;7.43;;
4074;SDS011;2052;53.522;9.806;2023-08-12T10:28:50;8.43;;;7.23;;
4074;SDS011;2052;53.522;9.806;2023-08-12T10:31:19;9.20;;;7.43;;
4074;SDS011;2052;53.522;9.806;2023-08-12T10:33:48;10.20;;;6.50;;
4074;SDS011;2052;53.522;9.806;2023-08-12T10:36:15;10.40;;;7.00;;
4074;SDS011;2052;53.522;9.806;2023-08-12T10:38:44;7.33;;;6.00;;
4074;SDS011;2052;53.522;9.806;2023-08-12T10:41:14;6.70;;;5.40;;
4074;SDS011;2052;53.522;9.806;2023-08-12T10:43:48;6.67;;;4.80;;
4074;SDS011;2052;53.522;9.806;2023-08-12T10:46:22;5.60;;;5.10;;
4074;SDS011;2052;53.522;9.806;2023-08-12T10:48:56;4.87;;;4.37;;
4074;SDS011;2052;53.522;9.806;2023-08-12T10:51:38;7.20;;;4.60;;
4074;SDS011;2052;53.522;9.806;2023-08-12T10:54:09;6.00;;;4.97;;
4074;SDS011;2052;53.522;9.806;2023-08-12T10:59:48;9.00;;;5.10;;
4074;SDS011;2052;53.522;9.806;2023-08-12T11:02:18;7.37;;;4.93;;
4074;SDS011;2052;53.522;9.806;2023-08-12T11:04:48;6.07;;;4.50;;
4074;SDS011;2052;53.522;9.806;2023-08-12T11:07:15;8.33;;;5.40;;
4074;SDS011;2052;53.522;9.806;2023-08-12T11:09:42;5.43;;;4.50;;
4074;SDS011;2052;53.522;9.806;2023-08-12T11:12:08;5.13;;;4.30;;
4074;SDS011;2052;53.522;9.806;2023-08-12T11:14:46;4.53;;;4.00;;
4074;SDS011;2052;53.522;9.806;2023-08-12T11:17:13;9.53;;;4.87;;
4074;SDS011;2052;53.522;9.806;2023-08-12T11:19:43;5.63;;;3.67;;
4074;SDS011;2052;53.522;9.806;2023-08-12T11:22:09;4.87;;;3.87;;
4074;SDS011;2052;53.522;9.806;2023-08-12T11:24:38;3.73;;;3.33;;
4074;SDS011;2052;53.522;9.806;2023-08-12T11:29:50;8.83;;;4.90;;
4074;SDS011;2052;53.522;9.806;2023-08-12T11:32:22;6.60;;;5.07;;
4074;SDS011;2052;53.522;9.806;2023-08-12T11:34:50;5.47;;;4.27;;
4074;SDS011;2052;53.522;9.806;2023-08-12T11:37:16;5.57;;;4.70;;
4074;SDS011;2052;53.522;9.806;2023-08-12T11:39:43;6.40;;;4.57;;
4074;SDS011;2052;53.522;9.806;2023-08-12T11:42:09;6.87;;;4.80;;
4074;SDS011;2052;53.522;9.806;2023-08-12T11:44:36;6.57;;;5.50;;
4074;SDS011;2052;53.522;9.806;2023-08-12T11:47:02;6.10;;;5.47;;
4074;SDS011;2052;53.522;9.806;2023-08-12T11:49:29;8.70;;;6.00;;
4074;SDS011;2052;53.522;9.806;2023-08-12T11:51:57;8.20;;;5.53;;
4074;SDS011;2052;53.522;9.806;2023-08-12T11:54:23;5.90;;;4.93;;
4074;SDS011;2052;53.522;9.806;2023-08-12T11:56:50;10.53;;;5.70;;
4074;SDS011;2052;53.522;9.806;2023-08-12T11:59:17;8.00;;;5.43;;
4074;SDS011;2052;53.522;9.806;2023-08-12T12:01:46;6.73;;;5.70;;
4074;SDS011;2052;53.522;9.806;2023-08-12T12:04:13;8.37;;;6.53;;
4074;SDS011;2052;53.522;9.806;2023-08-12T12:06:41;8.13;;;4.90;;
4074;SDS011;2052;53.522;9.806;2023-08-12T12:09:10;10.73;;;5.63;;
4074;SDS011;2052;53.522;9.806;2023-08-12T12:11:37;10.97;;;5.80;;
4074;SDS011;2052;53.522;9.806;2023-08-12T12:14:05;9.00;;;6.40;;
4074;SDS011;2052;53.522;9.806;2023-08-12T12:16:39;9.67;;;6.20;;
4074;SDS011;2052;53.522;9.806;2023-08-12T12:19:12;10.27;;;6.90;;
4074;SDS011;2052;53.522;9.806;2023-08-12T12:21:41;10.00;;;7.37;;
4074;SDS011;2052;53.522;9.806;2023-08-12T12:24:10;8.00;;;5.70;;
4074;SDS011;2052;53.522;9.806;2023-08-12T12:26:36;7.07;;;6.10;;
4074;SDS011;2052;53.522;9.806;2023-08-12T12:29:03;8.00;;;5.57;;
4074;SDS011;2052;53.522;9.806;2023-08-12T12:31:31;12.00;;;6.53;;
4074;SDS011;2052;53.522;9.806;2023-08-12T12:33:58;6.80;;;6.10;;
4074;SDS011;2052;53.522;9.806;2023-08-12T12:36:25;8.20;;;6.47;;
4074;SDS011;2052;53.522;9.806;2023-08-12T12:38:51;6.80;;;5.50;;
4074;SDS011;2052;53.522;9.806;2023-08-12T12:41:19;8.00;;;7.20;;
4074;SDS011;2052;53.522;9.806;2023-08-12T12:43:46;7.87;;;6.07;;
4074;SDS011;2052;53.522;9.806;2023-08-12T12:46:14;8.93;;;6.57;;
4074;SDS011;2052;53.522;9.806;2023-08-12T12:48:41;8.40;;;6.20;;
4074;SDS011;2052;53.522;9.806;2023-08-12T12:51:07;7.60;;;6.80;;
4074;SDS011;2052;53.522;9.806;2023-08-12T12:53:34;7.87;;;6.07;;
4074;SDS011;2052;53.522;9.806;2023-08-12T12:56:01;9.13;;;5.73;;
4074;SDS011;2052;53.522;9.806;2023-08-12T12:58:32;11.33;;;6.93;;
4074;SDS011;2052;53.522;9.806;2023-08-12T13:00:59;8.30;;;7.40;;
4074;SDS011;2052;53.522;9.806;2023-08-12T13:03:26;9.60;;;6.67;;
4074;SDS011;2052;53.522;9.806;2023-08-12T13:05:53;9.70;;;7.37;;
4074;SDS011;2052;53.522;9.806;2023-08-12T13:08:20;9.50;;;7.30;;
4074;SDS011;2052;53.522;9.806;2023-08-12T13:10:46;11.60;;;8.03;;
4074;SDS011;2052;53.522;9.806;2023-08-12T13:13:13;8.77;;;7.20;;
4074;SDS011;2052;53.522;9.806;2023-08-12T13:15:42;8.80;;;7.00;;
4074;SDS011;2052;53.522;9.806;2023-08-12T13:18:09;7.93;;;6.60;;
4074;SDS011;2052;53.522;9.806;2023-08-12T13:20:36;8.43;;;6.57;;
4074;SDS011;2052;53.522;9.806;2023-08-12T13:23:03;7.40;;;6.60;;
4074;SDS011;2052;53.522;9.806;2023-08-12T13:25:30;11.97;;;7.20;;
4074;SDS011;2052;53.522;9.806;2023-08-12T13:27:58;7.00;;;5.97;;
4074;SDS011;2052;53.522;9.806;2023-08-12T13:30:26;8.87;;;6.40;;
4074;SDS011;2052;53.522;9.806;2023-08-12T13:32:55;8.20;;;6.13;;
4074;SDS011;2052;53.522;9.806;2023-08-12T13:35:24;6.03;;;5.53;;
4074;SDS011;2052;53.522;9.806;2023-08-12T13:37:53;7.57;;;6.13;;
4074;SDS011;2052;53.522;9.806;2023-08-12T13:40:20;9.13;;;6.43;;
4074;SDS011;2052;53.522;9.806;2023-08-12T13:42:47;11.13;;;6.70;;
4074;SDS011;2052;53.522;9.806;2023-08-12T13:45:13;10.00;;;7.20;;
4074;SDS011;2052;53.522;9.806;2023-08-12T13:47:40;8.50;;;7.00;;
4074;SDS011;2052;53.522;9.806;2023-08-12T13:50:08;8.40;;;7.03;;
4074;SDS011;2052;53.522;9.806;2023-08-12T13:52:35;7.73;;;6.53;;
4074;SDS011;2052;53.522;9.806;2023-08-12T13:55:02;9.90;;;7.27;;
4074;SDS011;2052;53.522;9.806;2023-08-12T13:57:29;10.93;;;8.00;;
4074;SDS011;2052;53.522;9.806;2023-08-12T13:59:56;8.93;;;7.37;;
4074;SDS011;2052;53.522;9.806;2023-08-12T14:02:22;9.33;;;7.80;;
4074;SDS011;2052;53.522;9.806;2023-08-12T14:04:49;17.93;;;8.40;;
4074;SDS011;2052;53.522;9.806;2023-08-12T14:07:19;9.83;;;7.77;;
4074;SDS011;2052;53.522;9.806;2023-08-12T14:09:46;9.47;;;6.90;;
4074;SDS011;2052;53.522;9.806;2023-08-12T14:12:13;8.60;;;7.53;;
4074;SDS011;2052;53.522;9.806;2023-08-12T14:14:40;9.90;;;7.90;;
4074;SDS011;2052;53.522;9.806;2023-08-12T14:17:08;9.73;;;7.70;;
4074;SDS011;2052;53.522;9.806;2023-08-12T14:19:39;10.07;;;8.77;;
4074;SDS011;2052;53.522;9.806;2023-08-12T14:22:07;10.90;;;9.73;;
4074;SDS011;2052;53.522;9.806;2023-08-12T14:24:35;12.60;;;9.57;;
4074;SDS011;2052;53.522;9.806;2023-08-12T14:27:02;14.93;;;10.00;;
4074;SDS011;2052;53.522;9.806;2023-08-12T14:29:29;15.57;;;11.60;;
4074;SDS011;2052;53.522;9.806;2023-08-12T14:31:56;11.27;;;9.73;;
4074;SDS011;2052;53.522;9.806;2023-08-12T14:34:23;13.90;;;10.47;;
4074;SDS011;2052;53.522;9.806;2023-08-12T14:36:49;13.33;;;10.00;;
4074;SDS011;2052;53.522;9.806;2023-08-12T14:39:16;14.30;;;10.83;;
4074;SDS011;2052;53.522;9.806;2023-08-12T14:41:44;13.67;;;11.13;;
4074;SDS011;2052;53.522;9.806;2023-08-12T14:44:11;15.17;;;12.47;;
4074;SDS011;2052;53.522;9.806;2023-08-12T14:46:38;13.47;;;11.43;;
4074;SDS011;2052;53.522;9.806;2023-08-12T14:49:04;13.20;;;10.87;;
4074;SDS011;2052;53.522;9.806;2023-08-12T14:51:31;15.67;;;13.13;;
4074;SDS011;2052;53.522;9.806;2023-08-12T14:53:57;13.97;;;10.53;;
4074;SDS011;2052;53.522;9.806;2023-08-12T14:56:25;12.50;;;10.37;;
4074;SDS011;2052;53.522;9.806;2023-08-12T14:58:53;13.07;;;11.07;;
4074;SDS011;2052;53.522;9.806;2023-08-12T15:01:19;13.37;;;10.77;;
4074;SDS011;2052;53.522;9.806;2023-08-12T15:03:46;13.90;;;11.57;;
4074;SDS011;2052;53.522;9.806;2023-08-12T15:06:13;17.00;;;13.53;;
4074;SDS011;2052;53.522;9.806;2023-08-12T15:08:39;15.73;;;13.50;;
4074;SDS011;2052;53.522;9.806;2023-08-12T15:11:06;20.50;;;16.13;;